createdAt,value
2018-05-26T00:00:51.272Z,5.50
2018-05-26T00:02:54.141Z,5.03
2018-05-26T00:04:57.025Z,7.53
2018-05-26T00:06:59.891Z,4.63
2018-05-26T00:09:02.774Z,9.93
2018-05-26T00:11:05.668Z,6.30
2018-05-26T00:13:08.756Z,9.40
2018-05-26T00:15:12.665Z,7.10
2018-05-26T00:17:15.530Z,6.67
2018-05-26T00:19:18.398Z,8.57
2018-05-26T00:21:21.309Z,5.70
2018-05-26T00:23:24.190Z,8.53
2018-05-26T00:25:28.835Z,6.82
2018-05-26T00:27:31.692Z,12.80
2018-05-26T00:29:34.609Z,11.73
2018-05-26T00:31:38.246Z,6.07
2018-05-26T00:33:41.159Z,8.23
2018-05-26T00:35:45.573Z,9.80
2018-05-26T00:37:48.477Z,10.17
2018-05-26T00:39:51.437Z,9.27
2018-05-26T00:41:54.301Z,7.67
2018-05-26T00:43:57.197Z,12.93
2018-05-26T00:46:00.084Z,7.93
2018-05-26T00:48:02.961Z,9.87
2018-05-26T00:50:05.846Z,10.00
2018-05-26T00:52:08.746Z,8.30
2018-05-26T00:54:11.609Z,8.00
2018-05-26T00:56:14.576Z,6.30
2018-05-26T00:58:17.452Z,8.80
2018-05-26T01:00:20.349Z,6.10
2018-05-26T01:02:23.241Z,6.60
2018-05-26T01:04:26.892Z,7.20
2018-05-26T01:06:29.845Z,10.37
2018-05-26T01:08:33.474Z,7.00
2018-05-26T01:10:36.378Z,7.00
2018-05-26T01:12:39.364Z,12.57
2018-05-26T01:14:43.777Z,8.43
2018-05-26T01:16:46.703Z,9.50
2018-05-26T01:18:50.332Z,9.13
2018-05-26T01:20:54.164Z,6.00
2018-05-26T01:22:57.025Z,7.00
2018-05-26T01:24:59.904Z,7.40
2018-05-26T01:27:02.780Z,16.53
2018-05-26T01:29:05.662Z,10.73
2018-05-26T01:31:08.568Z,7.63
2018-05-26T01:33:11.491Z,6.80
2018-05-26T01:35:15.139Z,9.17
2018-05-26T01:37:18.012Z,9.30
2018-05-26T01:39:20.892Z,10.87
2018-05-26T01:41:24.177Z,7.40
2018-05-26T01:43:27.085Z,10.83
2018-05-26T01:45:29.975Z,11.47
2018-05-26T01:47:33.676Z,10.70
2018-05-26T01:49:36.545Z,6.73
2018-05-26T01:51:39.521Z,6.50
2018-05-26T01:53:42.512Z,8.90
2018-05-26T01:55:45.488Z,7.57
2018-05-26T01:57:49.872Z,9.60
2018-05-26T01:59:52.784Z,8.10
2018-05-26T02:01:57.169Z,8.47
2018-05-26T02:04:00.052Z,6.47
2018-05-26T02:06:03.081Z,8.87
2018-05-26T02:08:05.965Z,7.93
2018-05-26T02:10:08.857Z,10.60
2018-05-26T02:12:12.517Z,11.70
2018-05-26T02:14:15.405Z,7.83
2018-05-26T02:16:18.270Z,7.90
2018-05-26T02:18:21.577Z,10.50
2018-05-26T02:20:24.467Z,9.33
2018-05-26T02:22:27.336Z,7.37
2018-05-26T02:24:30.349Z,8.30
2018-05-26T02:26:34.033Z,7.97
2018-05-26T02:28:36.908Z,8.97
2018-05-26T02:30:39.885Z,8.10
2018-05-26T02:32:42.769Z,8.70
2018-05-26T02:34:45.638Z,10.23
2018-05-26T02:36:48.632Z,11.70
2018-05-26T02:38:51.500Z,7.10
2018-05-26T02:40:54.377Z,11.27
2018-05-26T02:42:57.473Z,11.73
2018-05-26T02:45:01.866Z,11.43
2018-05-26T02:47:04.789Z,9.60
2018-05-26T02:49:07.731Z,6.43
2018-05-26T02:51:10.640Z,7.17
2018-05-26T02:53:15.073Z,8.00
2018-05-26T02:55:18.857Z,5.83
2018-05-26T02:57:21.741Z,6.80
2018-05-26T02:59:24.616Z,8.63
2018-05-26T03:01:27.604Z,14.40
2018-05-26T03:03:30.497Z,6.93
2018-05-26T03:05:38.941Z,13.50
2018-05-26T03:07:48.210Z,11.83
2018-05-26T03:09:56.788Z,7.50
2018-05-26T03:12:06.180Z,7.60
2018-05-26T03:14:16.365Z,27.33
2018-05-26T03:16:22.220Z,13.10
2018-05-26T03:18:25.161Z,7.30
2018-05-26T03:20:28.153Z,8.30
2018-05-26T03:22:31.017Z,10.23
2018-05-26T03:24:33.920Z,5.90
2018-05-26T03:26:36.788Z,6.97
2018-05-26T03:28:39.664Z,8.00
2018-05-26T03:30:42.531Z,16.30
2018-05-26T03:32:45.433Z,8.77
2018-05-26T03:34:48.321Z,8.87
2018-05-26T03:36:52.033Z,7.90
2018-05-26T03:38:55.689Z,7.87
2018-05-26T03:40:58.580Z,6.53
2018-05-26T03:43:01.471Z,6.93
2018-05-26T03:45:04.782Z,7.53
2018-05-26T03:47:08.442Z,11.27
2018-05-26T03:49:11.349Z,6.87
2018-05-26T03:51:14.416Z,8.33
2018-05-26T03:53:18.861Z,11.10
2018-05-26T03:55:35.227Z,7.93
2018-05-26T03:57:50.100Z,11.17
2018-05-26T04:00:09.789Z,9.73
2018-05-26T04:02:13.545Z,8.73
2018-05-26T04:04:16.802Z,10.47
2018-05-26T04:06:19.688Z,7.23
2018-05-26T04:08:22.616Z,7.73
2018-05-26T04:10:25.607Z,10.97
2018-05-26T04:12:28.489Z,8.80
2018-05-26T04:14:31.349Z,11.93
2018-05-26T04:16:34.348Z,9.90
2018-05-26T04:18:37.233Z,8.80
2018-05-26T04:20:41.608Z,8.80
2018-05-26T04:22:44.528Z,10.80
2018-05-26T04:24:47.409Z,7.63
2018-05-26T04:26:50.289Z,8.30
2018-05-26T04:28:53.380Z,8.67
2018-05-26T04:30:56.314Z,6.70
2018-05-26T04:32:59.184Z,7.73
2018-05-26T04:35:02.123Z,14.17
2018-05-26T04:37:05.115Z,8.20
2018-05-26T04:39:08.758Z,14.37
2018-05-26T04:41:11.653Z,7.30
2018-05-26T04:43:14.531Z,7.63
2018-05-26T04:45:17.459Z,9.63
2018-05-26T04:47:20.591Z,8.23
2018-05-26T04:49:23.466Z,7.90
2018-05-26T04:51:26.394Z,7.63
2018-05-26T04:53:29.417Z,8.80
2018-05-26T04:55:33.079Z,12.40
2018-05-26T04:57:35.949Z,10.57
2018-05-26T04:59:39.181Z,7.60
2018-05-26T05:01:42.869Z,8.60
2018-05-26T05:03:46.536Z,9.33
2018-05-26T05:05:49.408Z,6.67
2018-05-26T05:07:52.284Z,11.73
2018-05-26T05:09:55.168Z,6.80
2018-05-26T05:11:58.392Z,17.93
2018-05-26T05:14:02.050Z,9.87
2018-05-26T05:16:04.946Z,11.47
2018-05-26T05:18:08.033Z,9.07
2018-05-26T05:20:11.016Z,7.80
2018-05-26T05:22:15.441Z,9.03
2018-05-26T05:24:18.345Z,13.77
2018-05-26T05:26:22.016Z,7.67
2018-05-26T05:28:24.881Z,15.03
2018-05-26T05:30:27.889Z,17.57
2018-05-26T05:32:32.390Z,13.87
2018-05-26T05:34:35.961Z,6.40
2018-05-26T05:36:39.148Z,10.27
2018-05-26T05:38:42.534Z,7.50
2018-05-26T05:40:45.405Z,7.67
2018-05-26T05:42:48.345Z,11.40
2018-05-26T05:44:51.220Z,11.30
2018-05-26T05:46:54.105Z,7.40
2018-05-26T05:48:57.388Z,14.70
2018-05-26T05:51:00.273Z,10.00
2018-05-26T05:53:03.145Z,7.90
2018-05-26T05:55:06.029Z,12.00
2018-05-26T05:57:08.902Z,9.50
2018-05-26T05:59:11.928Z,13.10
2018-05-26T06:01:15.581Z,19.60
2018-05-26T06:03:18.453Z,7.77
2018-05-26T06:05:21.329Z,10.33
2018-05-26T06:07:24.229Z,9.67
2018-05-26T06:09:27.837Z,12.80
2018-05-26T06:11:32.261Z,10.30
2018-05-26T06:13:36.657Z,19.47
2018-05-26T06:15:39.553Z,10.07
2018-05-26T06:17:42.551Z,9.13
2018-05-26T06:19:46.245Z,14.70
2018-05-26T06:21:49.113Z,16.13
2018-05-26T06:23:52.840Z,11.97
2018-05-26T06:25:56.864Z,7.80
2018-05-26T06:28:00.503Z,11.00
2018-05-26T06:30:03.382Z,10.73
2018-05-26T06:32:06.280Z,19.33
2018-05-26T06:34:10.681Z,10.37
2018-05-26T06:36:13.554Z,12.83
2018-05-26T06:38:16.451Z,12.20
2018-05-26T06:40:19.321Z,14.30
2018-05-26T06:42:22.330Z,10.47
2018-05-26T06:44:25.644Z,13.67
2018-05-26T06:46:28.621Z,12.73
2018-05-26T06:48:32.297Z,17.43
2018-05-26T06:50:35.285Z,12.07
2018-05-26T06:52:38.308Z,13.37
2018-05-26T06:54:41.964Z,12.10
2018-05-26T06:56:44.956Z,10.83
2018-05-26T06:58:47.848Z,8.67
2018-05-26T07:00:51.494Z,12.90
2018-05-26T07:02:54.402Z,12.43
2018-05-26T07:04:57.349Z,12.93
2018-05-26T07:07:00.276Z,10.27
2018-05-26T07:09:03.272Z,13.00
2018-05-26T07:11:06.973Z,16.37
2018-05-26T07:13:10.625Z,13.33
2018-05-26T07:15:13.529Z,10.20
2018-05-26T07:17:16.529Z,16.50
2018-05-26T07:19:19.496Z,10.07
2018-05-26T07:21:23.919Z,10.00
2018-05-26T07:23:26.793Z,11.27
2018-05-26T07:25:29.665Z,15.87
2018-05-26T07:27:32.662Z,20.73
2018-05-26T07:29:35.534Z,12.53
2018-05-26T07:31:38.425Z,12.63
2018-05-26T07:33:41.565Z,12.23
2018-05-26T07:35:44.505Z,10.43
2018-05-26T07:37:47.385Z,12.40
2018-05-26T07:39:50.461Z,11.67
2018-05-26T07:41:53.328Z,12.20
2018-05-26T07:43:56.321Z,9.53
2018-05-26T07:46:00.223Z,9.05
2018-05-26T07:48:03.100Z,10.00
2018-05-26T07:50:05.973Z,10.17
2018-05-26T07:52:08.989Z,11.17
2018-05-26T07:54:11.869Z,12.20
2018-05-26T07:56:15.550Z,13.90
2018-05-26T07:58:18.537Z,13.23
2018-05-26T08:00:21.436Z,10.67
2018-05-26T08:02:25.074Z,15.23
2018-05-26T08:04:28.079Z,14.27
2018-05-26T08:06:30.987Z,12.20
2018-05-26T08:08:33.874Z,7.83
2018-05-26T08:10:36.843Z,22.50
2018-05-26T08:12:39.720Z,7.33
2018-05-26T08:14:42.820Z,8.50
2018-05-26T08:16:47.635Z,9.77
2018-05-26T08:18:50.520Z,9.67
2018-05-26T08:20:53.425Z,10.17
2018-05-26T08:22:57.177Z,9.53
2018-05-26T08:25:00.053Z,8.60
2018-05-26T08:27:02.957Z,6.97
2018-05-26T08:29:05.853Z,6.53
2018-05-26T08:31:09.745Z,8.45
2018-05-26T08:33:12.621Z,7.87
2018-05-26T08:35:15.713Z,7.30
2018-05-26T08:37:18.689Z,7.67
2018-05-26T08:39:21.570Z,6.93
2018-05-26T08:41:24.459Z,13.33
2018-05-26T08:43:28.864Z,9.00
2018-05-26T08:45:31.753Z,7.70
2018-05-26T08:47:34.880Z,7.90
2018-05-26T08:49:37.753Z,12.70
2018-05-26T08:51:41.390Z,7.97
2018-05-26T08:53:44.281Z,8.93
2018-05-26T08:55:47.203Z,9.20
2018-05-26T08:57:50.861Z,7.60
2018-05-26T08:59:53.785Z,11.60
2018-05-26T09:01:56.745Z,10.10
2018-05-26T09:04:00.396Z,15.33
2018-05-26T09:06:03.305Z,9.37
2018-05-26T09:08:06.202Z,18.10
2018-05-26T09:10:09.106Z,8.63
2018-05-26T09:12:12.061Z,10.00
2018-05-26T09:14:14.937Z,9.20
2018-05-26T09:16:17.824Z,9.33
2018-05-26T09:18:21.145Z,8.53
2018-05-26T09:20:24.785Z,8.43
2018-05-26T09:22:27.662Z,7.37
2018-05-26T09:24:30.576Z,13.10
2018-05-26T09:26:33.453Z,7.03
2018-05-26T09:28:36.318Z,8.27
2018-05-26T09:30:39.215Z,8.73
2018-05-26T09:32:42.109Z,9.87
2018-05-26T09:34:45.016Z,17.03
2018-05-26T09:36:47.965Z,8.00
2018-05-26T09:38:50.841Z,7.20
2018-05-26T09:40:53.719Z,7.07
2018-05-26T09:42:56.822Z,57.77
2018-05-26T09:45:00.523Z,7.90
2018-05-26T09:47:03.407Z,12.77
2018-05-26T09:49:06.421Z,6.93
2018-05-26T09:51:10.117Z,10.20
2018-05-26T09:53:13.212Z,7.80
2018-05-26T09:55:16.557Z,6.90
2018-05-26T09:57:19.541Z,7.57
2018-05-26T09:59:22.424Z,7.63
2018-05-26T10:01:25.348Z,8.83
2018-05-26T10:03:28.964Z,8.77
2018-05-26T10:05:31.885Z,8.63
2018-05-26T10:07:34.966Z,10.17
2018-05-26T10:09:37.830Z,8.40
2018-05-26T10:11:40.724Z,7.37
2018-05-26T10:13:43.617Z,7.70
2018-05-26T10:15:47.317Z,8.73
2018-05-26T10:17:50.245Z,7.23
2018-05-26T10:19:53.195Z,7.27
2018-05-26T10:21:56.052Z,5.47
2018-05-26T10:23:58.952Z,7.47
2018-05-26T10:26:02.631Z,8.23
2018-05-26T10:28:05.485Z,8.13
2018-05-26T10:30:08.401Z,12.73
2018-05-26T10:32:11.368Z,6.53
2018-05-26T10:34:14.253Z,6.70
2018-05-26T10:36:17.206Z,9.00
2018-05-26T10:38:20.093Z,8.70
2018-05-26T10:40:23.780Z,5.03
2018-05-26T10:42:26.703Z,17.77
2018-05-26T10:44:29.609Z,6.90
2018-05-26T10:46:33.229Z,5.93
2018-05-26T10:48:36.102Z,7.43
2018-05-26T10:50:39.051Z,8.33
2018-05-26T10:52:41.929Z,6.47
2018-05-26T10:54:44.805Z,6.50
2018-05-26T10:56:47.732Z,7.07
2018-05-26T10:58:50.615Z,13.17
2018-05-26T11:00:53.540Z,8.93
2018-05-26T11:02:56.454Z,4.77
2018-05-26T11:05:00.132Z,5.63
2018-05-26T11:07:03.000Z,5.63
2018-05-26T11:09:05.901Z,6.00
2018-05-26T11:11:08.768Z,6.20
2018-05-26T11:13:11.647Z,8.67
2018-05-26T11:15:14.651Z,14.40
2018-05-26T11:17:17.554Z,5.87
2018-05-26T11:19:21.209Z,6.47
2018-05-26T11:21:24.296Z,6.20
2018-05-26T11:23:27.166Z,5.53
2018-05-26T11:25:30.166Z,8.80
2018-05-26T11:27:33.114Z,6.60
2018-05-26T11:29:35.992Z,5.67
2018-05-26T11:31:38.905Z,5.87
2018-05-26T11:33:41.883Z,5.17
2018-05-26T11:35:44.784Z,10.50
2018-05-26T11:37:48.506Z,7.20
2018-05-26T11:39:52.160Z,5.63
2018-05-26T11:41:55.044Z,10.23
2018-05-26T11:43:58.041Z,5.33
2018-05-26T11:46:01.741Z,7.53
2018-05-26T11:48:04.624Z,6.77
2018-05-26T11:50:07.505Z,7.83
2018-05-26T11:52:10.470Z,6.70
2018-05-26T11:54:13.356Z,5.00
2018-05-26T11:56:16.237Z,5.90
2018-05-26T11:58:19.460Z,6.80
2018-05-26T12:00:23.837Z,6.00
2018-05-26T12:02:26.721Z,6.57
2018-05-26T12:04:30.009Z,7.30
2018-05-26T12:06:32.871Z,9.23
2018-05-26T12:08:35.742Z,4.93
2018-05-26T12:10:38.633Z,7.57
2018-05-26T12:12:41.538Z,6.00
2018-05-26T12:14:45.909Z,6.10
2018-05-26T12:16:49.038Z,5.17
2018-05-26T12:18:52.029Z,6.60
2018-05-26T12:20:54.968Z,6.83
2018-05-26T12:22:57.869Z,5.47
2018-05-26T12:25:00.749Z,7.83
2018-05-26T12:27:03.753Z,6.37
2018-05-26T12:29:06.829Z,7.43
2018-05-26T12:31:11.226Z,4.93
2018-05-26T12:33:14.119Z,6.17
2018-05-26T12:35:17.013Z,5.37
2018-05-26T12:37:19.882Z,6.70
2018-05-26T12:39:22.740Z,5.57
2018-05-26T12:41:25.650Z,5.20
2018-05-26T12:43:28.520Z,6.27
2018-05-26T12:45:31.428Z,5.20
2018-05-26T12:47:35.387Z,5.20
2018-05-26T12:49:38.312Z,11.60
2018-05-26T12:51:41.276Z,4.43
2018-05-26T12:53:44.207Z,5.27
2018-05-26T12:55:47.865Z,10.43
2018-05-26T12:57:50.783Z,6.63
2018-05-26T12:59:54.033Z,5.00
2018-05-26T13:01:57.013Z,4.90
2018-05-26T13:03:59.893Z,6.23
2018-05-26T13:06:03.704Z,8.00
2018-05-26T13:08:06.564Z,5.07
2018-05-26T13:10:09.447Z,4.47
2018-05-26T13:12:12.447Z,5.80
2018-05-26T13:14:15.344Z,12.73
2018-05-26T13:16:18.981Z,6.03
2018-05-26T13:18:21.889Z,5.43
2018-05-26T13:20:24.746Z,5.33
2018-05-26T13:22:27.620Z,4.70
2018-05-26T13:24:30.520Z,5.40
2018-05-26T13:26:33.406Z,10.60
2018-05-26T13:28:36.289Z,5.77
2018-05-26T13:30:39.201Z,4.20
2018-05-26T13:32:42.073Z,4.93
2018-05-26T13:34:44.961Z,5.47
2018-05-26T13:36:47.975Z,4.60
2018-05-26T13:38:50.825Z,4.30
2018-05-26T13:40:53.693Z,6.57
2018-05-26T13:42:56.980Z,4.63
2018-05-26T13:44:59.884Z,5.33
2018-05-26T13:47:02.755Z,4.77
2018-05-26T13:49:07.306Z,4.37
2018-05-26T13:51:10.284Z,10.03
2018-05-26T13:53:13.298Z,10.40
2018-05-26T13:55:16.149Z,3.47
2018-05-26T13:57:19.764Z,3.90
2018-05-26T13:59:22.696Z,5.23
2018-05-26T14:01:25.636Z,8.50
2018-05-26T14:03:28.504Z,5.03
2018-05-26T14:05:31.410Z,4.20
2018-05-26T14:07:34.301Z,3.90
2018-05-26T14:09:37.189Z,4.47
2018-05-26T14:11:40.061Z,4.40
2018-05-26T14:13:42.953Z,5.10
2018-05-26T14:15:45.909Z,4.30
2018-05-26T14:17:48.788Z,7.73
2018-05-26T14:19:51.711Z,4.90
2018-05-26T14:21:54.573Z,5.67
2018-05-26T14:23:57.628Z,3.93
2018-05-26T14:26:00.512Z,4.30
2018-05-26T14:28:03.407Z,5.00
2018-05-26T14:30:07.075Z,6.67
2018-05-26T14:32:10.085Z,6.10
2018-05-26T14:34:13.011Z,8.43
2018-05-26T14:36:16.736Z,6.13
2018-05-26T14:38:19.593Z,5.53
2018-05-26T14:40:23.233Z,3.90
2018-05-26T14:42:26.130Z,5.37
2018-05-26T14:44:29.042Z,3.57
2018-05-26T14:46:31.933Z,3.77
2018-05-26T14:48:35.577Z,3.77
2018-05-26T14:50:38.478Z,5.13
2018-05-26T14:52:41.691Z,10.52
2018-05-26T14:54:44.581Z,4.33
2018-05-26T14:56:48.288Z,3.50
2018-05-26T14:58:51.953Z,4.30
2018-05-26T15:00:54.833Z,3.73
2018-05-26T15:02:57.736Z,3.70
2018-05-26T15:05:00.648Z,4.50
2018-05-26T15:07:04.302Z,3.93
2018-05-26T15:09:07.301Z,9.53
2018-05-26T15:11:10.189Z,4.87
2018-05-26T15:13:13.880Z,4.17
2018-05-26T15:15:16.852Z,6.23
2018-05-26T15:17:19.728Z,3.90
2018-05-26T15:19:22.605Z,4.07
2018-05-26T15:21:25.543Z,4.57
2018-05-26T15:23:28.484Z,8.30
2018-05-26T15:25:31.377Z,3.87
2018-05-26T15:27:35.517Z,6.20
2018-05-26T15:29:38.492Z,4.80
2018-05-26T15:31:42.115Z,4.27
2018-05-26T15:33:45.910Z,3.90
2018-05-26T15:35:48.874Z,4.27
2018-05-26T15:37:52.497Z,4.00
2018-05-26T15:39:55.392Z,4.97
2018-05-26T15:41:58.277Z,3.63
2018-05-26T15:44:01.149Z,3.10
2018-05-26T15:46:04.157Z,3.57
2018-05-26T15:48:07.029Z,3.43
2018-05-26T15:50:09.937Z,3.57
2018-05-26T15:52:13.617Z,5.60
2018-05-26T15:54:16.498Z,3.70
2018-05-26T15:56:19.369Z,4.70
2018-05-26T15:58:22.466Z,4.90
2018-05-26T16:00:25.441Z,6.87
2018-05-26T16:02:28.329Z,11.83
2018-05-26T16:04:31.245Z,3.67
2018-05-26T16:06:34.890Z,3.93
2018-05-26T16:08:37.796Z,3.70
2018-05-26T16:10:42.248Z,3.20
2018-05-26T16:12:45.136Z,3.57
2018-05-26T16:14:48.013Z,3.40
2018-05-26T16:16:51.052Z,4.83
2018-05-26T16:18:53.921Z,5.03
2018-05-26T16:20:56.792Z,3.70
2018-05-26T16:22:59.685Z,2.93
2018-05-26T16:25:02.589Z,4.17
2018-05-26T16:27:05.556Z,9.50
2018-05-26T16:29:08.441Z,6.03
2018-05-26T16:31:11.318Z,5.47
2018-05-26T16:33:14.303Z,261.97
2018-05-26T16:35:17.301Z,202.20
2018-05-26T16:37:20.273Z,265.10
2018-05-26T16:39:23.161Z,114.97
2018-05-26T16:41:26.950Z,146.13
2018-05-26T16:43:31.409Z,134.10
2018-05-26T16:45:34.320Z,113.93
2018-05-26T16:47:37.229Z,109.50
2018-05-26T16:49:40.124Z,139.07
2018-05-26T16:51:43.002Z,98.93
2018-05-26T16:53:45.905Z,73.27
2018-05-26T16:55:48.901Z,85.80
2018-05-26T16:57:52.560Z,87.87
2018-05-26T16:59:55.581Z,58.03
2018-05-26T17:01:58.504Z,30.60
2018-05-26T17:04:01.389Z,36.43
2018-05-26T17:06:04.303Z,40.57
2018-05-26T17:08:07.173Z,28.67
2018-05-26T17:10:10.092Z,23.80
2018-05-26T17:12:14.068Z,27.37
2018-05-26T17:14:17.753Z,39.27
2018-05-26T17:16:22.162Z,11.57
2018-05-26T17:18:25.248Z,4.57
2018-05-26T17:20:28.216Z,16.07
2018-05-26T17:22:31.367Z,4.47
2018-05-26T17:24:34.612Z,3.80
2018-05-26T17:26:37.641Z,4.70
2018-05-26T17:28:40.552Z,4.77
2018-05-26T17:30:43.679Z,4.27
2018-05-26T17:32:47.405Z,8.33
2018-05-26T17:34:51.054Z,5.90
2018-05-26T17:36:54.261Z,3.60
2018-05-26T17:38:57.392Z,3.87
2018-05-26T17:41:00.606Z,3.67
2018-05-26T17:43:04.529Z,5.60
2018-05-26T17:45:07.512Z,5.07
2018-05-26T17:47:10.413Z,4.30
2018-05-26T17:49:14.112Z,5.40
2018-05-26T17:51:17.470Z,4.40
2018-05-26T17:53:20.513Z,7.40
2018-05-26T17:55:24.477Z,5.60
2018-05-26T17:57:27.632Z,5.87
2018-05-26T17:59:30.521Z,4.70
2018-05-26T18:01:33.526Z,9.43
2018-05-26T18:03:36.493Z,5.27
2018-05-26T18:05:39.756Z,4.70
2018-05-26T18:07:42.689Z,5.20
2018-05-26T18:09:45.560Z,4.90
2018-05-26T18:11:48.442Z,3.70
2018-05-26T18:13:51.340Z,14.13
2018-05-26T18:15:54.995Z,9.47
2018-05-26T18:17:57.885Z,4.33
2018-05-26T18:20:00.773Z,7.00
2018-05-26T18:22:03.644Z,7.13
2018-05-26T18:24:06.529Z,3.47
2018-05-26T18:26:09.531Z,9.23
2018-05-26T18:28:13.180Z,4.90
2018-05-26T18:30:16.069Z,4.43
2018-05-26T18:32:18.968Z,8.80
2018-05-26T18:34:21.862Z,3.73
2018-05-26T18:36:24.736Z,3.43
2018-05-26T18:38:27.621Z,3.73
2018-05-26T18:40:30.497Z,4.73
2018-05-26T18:42:33.369Z,4.10
2018-05-26T18:44:36.709Z,3.77
2018-05-26T18:46:40.354Z,4.00
2018-05-26T18:48:43.286Z,4.40
2018-05-26T18:50:46.137Z,5.20
2018-05-26T18:52:49.022Z,3.70
2018-05-26T18:54:51.901Z,4.80
2018-05-26T18:56:54.801Z,3.93
2018-05-26T18:58:59.200Z,4.30
2018-05-26T19:01:02.189Z,4.23
2018-05-26T19:03:05.097Z,4.13
2018-05-26T19:05:08.753Z,3.90
2018-05-26T19:07:11.714Z,4.07
2018-05-26T19:09:14.699Z,4.10
2018-05-26T19:11:17.557Z,5.40
2018-05-26T19:13:20.432Z,4.37
2018-05-26T19:15:24.105Z,4.40
2018-05-26T19:17:27.753Z,4.23
2018-05-26T19:19:30.636Z,6.13
2018-05-26T19:21:33.568Z,4.60
2018-05-26T19:23:36.562Z,4.77
2018-05-26T19:25:40.201Z,4.00
2018-05-26T19:27:43.216Z,14.33
2018-05-26T19:29:46.097Z,15.83
2018-05-26T19:31:49.028Z,11.67
2018-05-26T19:33:52.692Z,5.47
2018-05-26T19:35:56.394Z,4.70
2018-05-26T19:37:59.368Z,6.17
2018-05-26T19:40:04.181Z,7.73
2018-05-26T19:42:07.066Z,5.30
2018-05-26T19:44:09.989Z,6.57
2018-05-26T19:46:12.956Z,8.53
2018-05-26T19:48:16.633Z,5.90
2018-05-26T19:50:19.649Z,5.22
2018-05-26T19:52:22.642Z,5.67
2018-05-26T19:54:26.263Z,7.00
2018-05-26T19:56:29.185Z,4.93
2018-05-26T19:58:32.265Z,8.10
2018-05-26T20:00:35.154Z,5.60
2018-05-26T20:02:38.025Z,4.40
2018-05-26T20:04:40.955Z,8.27
2018-05-26T20:06:44.595Z,5.30
2018-05-26T20:08:47.528Z,5.83
2018-05-26T20:10:52.313Z,7.70
2018-05-26T20:12:55.208Z,5.40
2018-05-26T20:14:58.069Z,8.23
2018-05-26T20:17:01.054Z,4.80
2018-05-26T20:19:03.913Z,4.60
2018-05-26T20:21:06.790Z,5.03
2018-05-26T20:23:09.717Z,5.90
2018-05-26T20:25:13.366Z,6.43
2018-05-26T20:27:16.237Z,6.33
2018-05-26T20:29:19.181Z,7.80
2018-05-26T20:31:23.078Z,6.27
2018-05-26T20:33:26.721Z,5.97
2018-05-26T20:35:29.792Z,5.20
2018-05-26T20:37:32.706Z,5.30
2018-05-26T20:39:35.581Z,5.43
2018-05-26T20:41:38.479Z,7.20
2018-05-26T20:43:41.428Z,5.53
2018-05-26T20:45:44.244Z,6.77
2018-05-26T20:47:47.150Z,7.63
2018-05-26T20:49:50.126Z,7.13
2018-05-26T20:51:53.005Z,7.47
2018-05-26T20:53:56.125Z,8.63
2018-05-26T20:56:00.501Z,5.43
2018-05-26T20:58:03.384Z,7.10
2018-05-26T21:00:06.326Z,6.57
2018-05-26T21:02:09.206Z,5.10
2018-05-26T21:04:12.124Z,6.83
2018-05-26T21:06:15.393Z,5.93
2018-05-26T21:08:18.273Z,5.30
2018-05-26T21:10:21.180Z,7.20
2018-05-26T21:12:24.262Z,4.70
2018-05-26T21:14:27.131Z,4.67
2018-05-26T21:16:29.996Z,5.43
2018-05-26T21:18:32.914Z,6.43
2018-05-26T21:20:35.893Z,6.33
2018-05-26T21:22:38.804Z,5.33
2018-05-26T21:24:42.494Z,4.50
2018-05-26T21:26:46.181Z,10.40
2018-05-26T21:28:49.866Z,6.53
2018-05-26T21:30:53.158Z,6.13
2018-05-26T21:32:56.341Z,5.20
2018-05-26T21:34:59.245Z,7.00
2018-05-26T21:37:02.153Z,5.27
2018-05-26T21:39:05.781Z,4.33
2018-05-26T21:41:08.657Z,6.93
2018-05-26T21:43:11.569Z,4.30
2018-05-26T21:45:14.573Z,7.37
2018-05-26T21:47:19.166Z,4.60
2018-05-26T21:49:22.077Z,4.50
2018-05-26T21:51:25.720Z,5.13
2018-05-26T21:53:28.596Z,4.17
2018-05-26T21:55:31.500Z,4.40
2018-05-26T21:57:34.391Z,5.33
2018-05-26T21:59:37.264Z,6.23
2018-05-26T22:01:40.154Z,4.40
2018-05-26T22:03:43.961Z,5.30
2018-05-26T22:05:46.881Z,4.50
2018-05-26T22:07:49.839Z,5.03
2018-05-26T22:09:53.521Z,4.60
2018-05-26T22:11:56.394Z,5.93
2018-05-26T22:13:59.288Z,4.23
2018-05-26T22:16:02.161Z,3.70
2018-05-26T22:18:05.038Z,6.60
2018-05-26T22:20:08.121Z,6.43
2018-05-26T22:22:10.996Z,5.40
2018-05-26T22:24:13.884Z,4.73
2018-05-26T22:26:17.033Z,4.33
2018-05-26T22:28:19.961Z,4.80
2018-05-26T22:30:22.837Z,6.40
2018-05-26T22:32:27.656Z,5.23
2018-05-26T22:34:30.545Z,4.80
2018-05-26T22:36:33.437Z,4.67
2018-05-26T22:38:37.177Z,5.10
2018-05-26T22:40:40.014Z,4.30
2018-05-26T22:42:42.913Z,7.40
2018-05-26T22:44:46.665Z,5.23
2018-05-26T22:46:49.693Z,6.37
2018-05-26T22:48:52.557Z,6.50
2018-05-26T22:50:55.455Z,4.83
2018-05-26T22:52:59.094Z,7.53
2018-05-26T22:55:02.012Z,5.73
2018-05-26T22:57:05.005Z,4.40
2018-05-26T22:59:07.976Z,4.93
2018-05-26T23:01:10.845Z,6.13
2018-05-26T23:03:13.744Z,4.97
2018-05-26T23:05:16.617Z,4.60
2018-05-26T23:07:19.500Z,4.87
2018-05-26T23:09:22.497Z,12.20
2018-05-26T23:11:25.469Z,4.37
2018-05-26T23:13:28.346Z,5.13
2018-05-26T23:15:31.537Z,4.43
2018-05-26T23:17:34.534Z,4.43
2018-05-26T23:19:37.393Z,4.40
2018-05-26T23:21:40.386Z,3.83
2018-05-26T23:23:43.269Z,3.93
2018-05-26T23:25:46.145Z,3.87
2018-05-26T23:27:50.656Z,4.60
2018-05-26T23:29:53.544Z,5.13
2018-05-26T23:31:56.420Z,4.23
2018-05-26T23:34:00.329Z,6.47
2018-05-26T23:36:03.312Z,4.60
2018-05-26T23:38:06.188Z,4.47
2018-05-26T23:40:09.501Z,5.70
2018-05-26T23:42:13.137Z,7.97
2018-05-26T23:44:16.022Z,5.80
2018-05-26T23:46:18.917Z,6.47
2018-05-26T23:48:21.798Z,4.73
2018-05-26T23:50:24.669Z,4.53
2018-05-26T23:52:27.585Z,5.90
2018-05-26T23:54:30.456Z,4.67
2018-05-26T23:56:33.385Z,4.47
2018-05-26T23:58:37.053Z,5.57
